sensor_id;sensor_type;location;lat;lon;timestamp;temperature;humidity
5556;DHT22;2801;50.972;7.856;2022-07-30T00:01:50;17.00;99.90
5556;DHT22;2801;50.972;7.856;2022-07-30T00:04:18;16.90;99.90
5556;DHT22;2801;50.972;7.856;2022-07-30T00:06:45;16.90;99.90
5556;DHT22;2801;50.972;7.856;2022-07-30T00:09:12;16.80;99.90
5556;DHT22;2801;50.972;7.856;2022-07-30T00:11:39;16.90;99.90
5556;DHT22;2801;50.972;7.856;2022-07-30T00:14:06;16.70;99.90
5556;DHT22;2801;50.972;7.856;2022-07-30T00:16:33;16.50;99.90
5556;DHT22;2801;50.972;7.856;2022-07-30T00:19:00;16.40;99.90
5556;DHT22;2801;50.972;7.856;2022-07-30T00:21:28;16.30;99.90
5556;DHT22;2801;50.972;7.856;2022-07-30T00:24:02;16.20;99.90
5556;DHT22;2801;50.972;7.856;2022-07-30T00:26:30;16.10;99.90
5556;DHT22;2801;50.972;7.856;2022-07-30T00:28:57;16.10;99.90
5556;DHT22;2801;50.972;7.856;2022-07-30T00:31:23;16.00;99.90
5556;DHT22;2801;50.972;7.856;2022-07-30T00:33:52;15.80;99.90
5556;DHT22;2801;50.972;7.856;2022-07-30T00:36:19;15.50;99.90
5556;DHT22;2801;50.972;7.856;2022-07-30T00:38:46;15.40;99.90
5556;DHT22;2801;50.972;7.856;2022-07-30T00:41:13;15.30;99.90
5556;DHT22;2801;50.972;7.856;2022-07-30T00:43:41;15.10;99.90
5556;DHT22;2801;50.972;7.856;2022-07-30T00:46:08;14.90;99.90
5556;DHT22;2801;50.972;7.856;2022-07-30T00:48:35;14.70;99.90
5556;DHT22;2801;50.972;7.856;2022-07-30T00:51:02;14.60;99.90
5556;DHT22;2801;50.972;7.856;2022-07-30T00:53:29;14.50;99.90
5556;DHT22;2801;50.972;7.856;2022-07-30T00:55:56;14.40;99.90
5556;DHT22;2801;50.972;7.856;2022-07-30T00:58:23;14.40;99.90
5556;DHT22;2801;50.972;7.856;2022-07-30T01:00:50;14.50;99.90
5556;DHT22;2801;50.972;7.856;2022-07-30T01:03:17;14.50;99.90
5556;DHT22;2801;50.972;7.856;2022-07-30T01:05:44;14.50;99.90
5556;DHT22;2801;50.972;7.856;2022-07-30T01:08:12;14.70;99.90
5556;DHT22;2801;50.972;7.856;2022-07-30T01:10:39;14.50;99.90
5556;DHT22;2801;50.972;7.856;2022-07-30T01:13:06;14.50;99.90
5556;DHT22;2801;50.972;7.856;2022-07-30T01:15:35;14.40;99.90
5556;DHT22;2801;50.972;7.856;2022-07-30T01:18:04;14.40;99.90
5556;DHT22;2801;50.972;7.856;2022-07-30T01:20:37;14.30;99.90
5556;DHT22;2801;50.972;7.856;2022-07-30T01:23:21;14.20;99.90
5556;DHT22;2801;50.972;7.856;2022-07-30T01:26:07;14.20;99.90
5556;DHT22;2801;50.972;7.856;2022-07-30T01:28:38;14.10;99.90
5556;DHT22;2801;50.972;7.856;2022-07-30T01:31:08;14.10;99.90
5556;DHT22;2801;50.972;7.856;2022-07-30T01:33:42;14.00;99.90
5556;DHT22;2801;50.972;7.856;2022-07-30T01:36:12;14.00;99.90
5556;DHT22;2801;50.972;7.856;2022-07-30T01:38:44;13.90;99.90
5556;DHT22;2801;50.972;7.856;2022-07-30T01:41:12;13.90;99.90
5556;DHT22;2801;50.972;7.856;2022-07-30T01:43:42;13.80;99.90
5556;DHT22;2801;50.972;7.856;2022-07-30T01:46:13;13.80;99.90
5556;DHT22;2801;50.972;7.856;2022-07-30T01:48:43;13.80;99.90
5556;DHT22;2801;50.972;7.856;2022-07-30T01:51:12;13.80;99.90
5556;DHT22;2801;50.972;7.856;2022-07-30T01:53:40;13.70;99.90
5556;DHT22;2801;50.972;7.856;2022-07-30T01:56:10;13.70;99.90
5556;DHT22;2801;50.972;7.856;2022-07-30T01:58:43;13.70;99.90
5556;DHT22;2801;50.972;7.856;2022-07-30T02:01:14;13.60;99.90
5556;DHT22;2801;50.972;7.856;2022-07-30T02:03:42;13.60;99.90
5556;DHT22;2801;50.972;7.856;2022-07-30T02:06:16;13.60;99.90
5556;DHT22;2801;50.972;7.856;2022-07-30T02:09:00;13.50;99.90
5556;DHT22;2801;50.972;7.856;2022-07-30T02:11:42;13.50;99.90
5556;DHT22;2801;50.972;7.856;2022-07-30T02:15:16;13.50;99.90
5556;DHT22;2801;50.972;7.856;2022-07-30T02:18:15;13.40;99.90
5556;DHT22;2801;50.972;7.856;2022-07-30T02:20:57;13.40;99.90
5556;DHT22;2801;50.972;7.856;2022-07-30T02:23:40;13.30;99.90
5556;DHT22;2801;50.972;7.856;2022-07-30T02:26:12;13.30;99.90
5556;DHT22;2801;50.972;7.856;2022-07-30T02:28:48;13.30;99.90
5556;DHT22;2801;50.972;7.856;2022-07-30T02:31:21;13.30;99.90
5556;DHT22;2801;50.972;7.856;2022-07-30T02:33:53;13.20;99.90
5556;DHT22;2801;50.972;7.856;2022-07-30T02:36:24;13.20;99.90
5556;DHT22;2801;50.972;7.856;2022-07-30T02:38:53;13.10;99.90
5556;DHT22;2801;50.972;7.856;2022-07-30T02:41:23;13.10;99.90
5556;DHT22;2801;50.972;7.856;2022-07-30T02:43:52;13.00;99.90
5556;DHT22;2801;50.972;7.856;2022-07-30T02:46:22;12.90;99.90
5556;DHT22;2801;50.972;7.856;2022-07-30T02:48:52;12.80;99.90
5556;DHT22;2801;50.972;7.856;2022-07-30T02:51:22;12.60;99.90
5556;DHT22;2801;50.972;7.856;2022-07-30T02:53:52;12.40;99.90
5556;DHT22;2801;50.972;7.856;2022-07-30T02:56:22;12.40;99.90
5556;DHT22;2801;50.972;7.856;2022-07-30T02:58:52;12.20;99.90
5556;DHT22;2801;50.972;7.856;2022-07-30T03:01:21;12.20;99.90
5556;DHT22;2801;50.972;7.856;2022-07-30T03:03:50;12.20;99.90
5556;DHT22;2801;50.972;7.856;2022-07-30T03:06:18;12.20;99.90
5556;DHT22;2801;50.972;7.856;2022-07-30T03:08:46;12.20;99.90
5556;DHT22;2801;50.972;7.856;2022-07-30T03:11:14;12.20;99.90
5556;DHT22;2801;50.972;7.856;2022-07-30T03:13:44;12.20;99.90
5556;DHT22;2801;50.972;7.856;2022-07-30T03:16:11;12.20;99.90
5556;DHT22;2801;50.972;7.856;2022-07-30T03:18:41;12.10;99.90
5556;DHT22;2801;50.972;7.856;2022-07-30T03:21:10;12.10;99.90
5556;DHT22;2801;50.972;7.856;2022-07-30T03:23:41;12.10;99.90
5556;DHT22;2801;50.972;7.856;2022-07-30T03:26:10;12.10;99.90
5556;DHT22;2801;50.972;7.856;2022-07-30T03:28:39;12.10;99.90
5556;DHT22;2801;50.972;7.856;2022-07-30T03:31:07;12.10;99.90
5556;DHT22;2801;50.972;7.856;2022-07-30T03:33:37;12.10;99.90
5556;DHT22;2801;50.972;7.856;2022-07-30T03:36:07;12.00;99.90
5556;DHT22;2801;50.972;7.856;2022-07-30T03:38:37;12.00;99.90
5556;DHT22;2801;50.972;7.856;2022-07-30T03:41:07;12.00;99.90
5556;DHT22;2801;50.972;7.856;2022-07-30T03:43:37;12.00;99.90
5556;DHT22;2801;50.972;7.856;2022-07-30T03:46:06;12.00;99.90
5556;DHT22;2801;50.972;7.856;2022-07-30T03:48:35;12.00;99.90
5556;DHT22;2801;50.972;7.856;2022-07-30T03:51:06;12.10;99.90
5556;DHT22;2801;50.972;7.856;2022-07-30T03:53:35;11.90;99.90
5556;DHT22;2801;50.972;7.856;2022-07-30T03:56:03;11.90;99.90
5556;DHT22;2801;50.972;7.856;2022-07-30T03:58:31;11.90;99.90
5556;DHT22;2801;50.972;7.856;2022-07-30T04:01:01;11.90;99.90
5556;DHT22;2801;50.972;7.856;2022-07-30T04:03:30;11.90;99.90
5556;DHT22;2801;50.972;7.856;2022-07-30T04:05:59;11.90;99.90
5556;DHT22;2801;50.972;7.856;2022-07-30T04:08:29;11.90;99.90
5556;DHT22;2801;50.972;7.856;2022-07-30T04:10:56;12.00;99.90
5556;DHT22;2801;50.972;7.856;2022-07-30T04:13:23;12.00;99.90
5556;DHT22;2801;50.972;7.856;2022-07-30T04:15:54;12.00;99.90
5556;DHT22;2801;50.972;7.856;2022-07-30T04:18:52;12.00;99.90
5556;DHT22;2801;50.972;7.856;2022-07-30T04:21:23;11.90;99.90
5556;DHT22;2801;50.972;7.856;2022-07-30T04:23:52;12.00;99.90
5556;DHT22;2801;50.972;7.856;2022-07-30T04:26:33;11.80;99.90
5556;DHT22;2801;50.972;7.856;2022-07-30T04:29:05;11.70;99.90
5556;DHT22;2801;50.972;7.856;2022-07-30T04:31:34;11.70;99.90
5556;DHT22;2801;50.972;7.856;2022-07-30T04:34:06;11.70;99.90
5556;DHT22;2801;50.972;7.856;2022-07-30T04:36:34;11.60;99.90
5556;DHT22;2801;50.972;7.856;2022-07-30T04:39:01;11.60;99.90
5556;DHT22;2801;50.972;7.856;2022-07-30T04:41:28;11.50;99.90
5556;DHT22;2801;50.972;7.856;2022-07-30T04:44:13;11.50;99.90
5556;DHT22;2801;50.972;7.856;2022-07-30T04:46:40;11.50;99.90
5556;DHT22;2801;50.972;7.856;2022-07-30T04:49:08;11.50;99.90
5556;DHT22;2801;50.972;7.856;2022-07-30T04:51:37;11.60;99.90
5556;DHT22;2801;50.972;7.856;2022-07-30T04:54:06;11.70;99.90
5556;DHT22;2801;50.972;7.856;2022-07-30T04:56:42;11.90;99.90
5556;DHT22;2801;50.972;7.856;2022-07-30T04:59:22;12.10;99.90
5556;DHT22;2801;50.972;7.856;2022-07-30T05:01:51;12.30;99.90
5556;DHT22;2801;50.972;7.856;2022-07-30T05:04:22;12.50;99.90
5556;DHT22;2801;50.972;7.856;2022-07-30T05:06:51;12.70;99.90
5556;DHT22;2801;50.972;7.856;2022-07-30T05:09:19;12.80;99.90
5556;DHT22;2801;50.972;7.856;2022-07-30T05:11:50;13.10;99.90
5556;DHT22;2801;50.972;7.856;2022-07-30T05:14:22;13.20;99.90
5556;DHT22;2801;50.972;7.856;2022-07-30T05:16:50;13.60;99.90
5556;DHT22;2801;50.972;7.856;2022-07-30T05:19:18;14.00;99.90
5556;DHT22;2801;50.972;7.856;2022-07-30T05:21:45;14.50;99.90
5556;DHT22;2801;50.972;7.856;2022-07-30T05:24:13;14.90;99.90
5556;DHT22;2801;50.972;7.856;2022-07-30T05:26:40;15.30;99.90
5556;DHT22;2801;50.972;7.856;2022-07-30T05:29:07;15.60;99.90
5556;DHT22;2801;50.972;7.856;2022-07-30T05:31:42;16.00;99.90
5556;DHT22;2801;50.972;7.856;2022-07-30T05:34:10;16.20;99.90
5556;DHT22;2801;50.972;7.856;2022-07-30T05:36:37;16.40;99.90
5556;DHT22;2801;50.972;7.856;2022-07-30T05:39:04;16.40;99.90
5556;DHT22;2801;50.972;7.856;2022-07-30T05:41:31;16.50;99.90
5556;DHT22;2801;50.972;7.856;2022-07-30T05:43:59;16.80;99.90
5556;DHT22;2801;50.972;7.856;2022-07-30T05:46:27;17.00;99.90
5556;DHT22;2801;50.972;7.856;2022-07-30T05:48:54;17.20;99.90
5556;DHT22;2801;50.972;7.856;2022-07-30T05:51:26;17.50;99.90
5556;DHT22;2801;50.972;7.856;2022-07-30T05:53:53;17.80;99.90
5556;DHT22;2801;50.972;7.856;2022-07-30T05:56:19;18.10;99.90
5556;DHT22;2801;50.972;7.856;2022-07-30T05:58:46;18.40;99.90
5556;DHT22;2801;50.972;7.856;2022-07-30T06:01:13;18.60;99.90
5556;DHT22;2801;50.972;7.856;2022-07-30T06:03:40;18.80;99.90
5556;DHT22;2801;50.972;7.856;2022-07-30T06:06:07;19.00;99.90
5556;DHT22;2801;50.972;7.856;2022-07-30T06:08:34;19.20;99.90
5556;DHT22;2801;50.972;7.856;2022-07-30T06:11:01;19.40;99.90
5556;DHT22;2801;50.972;7.856;2022-07-30T06:13:28;19.70;99.90
5556;DHT22;2801;50.972;7.856;2022-07-30T06:15:55;19.70;99.90
5556;DHT22;2801;50.972;7.856;2022-07-30T06:18:22;19.90;99.90
5556;DHT22;2801;50.972;7.856;2022-07-30T06:20:50;20.10;99.90
5556;DHT22;2801;50.972;7.856;2022-07-30T06:23:20;20.30;99.90
5556;DHT22;2801;50.972;7.856;2022-07-30T06:25:47;20.50;99.90
5556;DHT22;2801;50.972;7.856;2022-07-30T06:28:17;20.70;99.90
5556;DHT22;2801;50.972;7.856;2022-07-30T06:31:03;20.80;99.90
5556;DHT22;2801;50.972;7.856;2022-07-30T06:33:30;20.80;99.90
5556;DHT22;2801;50.972;7.856;2022-07-30T06:35:57;20.80;99.90
5556;DHT22;2801;50.972;7.856;2022-07-30T06:38:24;20.90;99.90
5556;DHT22;2801;50.972;7.856;2022-07-30T06:40:51;21.10;99.90
5556;DHT22;2801;50.972;7.856;2022-07-30T06:43:18;21.10;99.90
5556;DHT22;2801;50.972;7.856;2022-07-30T06:45:46;21.30;99.90
5556;DHT22;2801;50.972;7.856;2022-07-30T06:48:13;21.40;99.90
5556;DHT22;2801;50.972;7.856;2022-07-30T06:50:40;21.50;99.90
5556;DHT22;2801;50.972;7.856;2022-07-30T06:53:07;21.70;99.90
5556;DHT22;2801;50.972;7.856;2022-07-30T06:55:34;21.90;99.90
5556;DHT22;2801;50.972;7.856;2022-07-30T06:58:01;22.00;99.90
5556;DHT22;2801;50.972;7.856;2022-07-30T07:00:28;22.20;99.90
5556;DHT22;2801;50.972;7.856;2022-07-30T07:03:00;22.40;99.90
5556;DHT22;2801;50.972;7.856;2022-07-30T07:05:27;22.70;99.90
5556;DHT22;2801;50.972;7.856;2022-07-30T07:07:54;22.90;99.90
5556;DHT22;2801;50.972;7.856;2022-07-30T07:10:25;23.00;99.90
5556;DHT22;2801;50.972;7.856;2022-07-30T07:12:53;23.10;99.90
5556;DHT22;2801;50.972;7.856;2022-07-30T07:15:21;23.10;99.90
5556;DHT22;2801;50.972;7.856;2022-07-30T07:18:03;23.00;99.90
5556;DHT22;2801;50.972;7.856;2022-07-30T07:20:32;23.00;99.90
5556;DHT22;2801;50.972;7.856;2022-07-30T07:23:00;23.00;99.90
5556;DHT22;2801;50.972;7.856;2022-07-30T07:25:35;23.00;99.90
5556;DHT22;2801;50.972;7.856;2022-07-30T07:28:02;23.00;99.90
5556;DHT22;2801;50.972;7.856;2022-07-30T07:30:39;23.00;99.90
5556;DHT22;2801;50.972;7.856;2022-07-30T07:33:10;23.10;99.90
5556;DHT22;2801;50.972;7.856;2022-07-30T07:35:38;23.20;99.90
5556;DHT22;2801;50.972;7.856;2022-07-30T07:38:14;23.40;99.90
5556;DHT22;2801;50.972;7.856;2022-07-30T07:40:42;23.50;99.90
5556;DHT22;2801;50.972;7.856;2022-07-30T07:43:09;23.70;99.90
5556;DHT22;2801;50.972;7.856;2022-07-30T07:45:36;23.90;99.60
5556;DHT22;2801;50.972;7.856;2022-07-30T07:48:03;24.00;99.20
5556;DHT22;2801;50.972;7.856;2022-07-30T07:50:30;24.10;99.90
5556;DHT22;2801;50.972;7.856;2022-07-30T07:52:57;24.30;99.60
5556;DHT22;2801;50.972;7.856;2022-07-30T07:55:24;24.20;99.10
5556;DHT22;2801;50.972;7.856;2022-07-30T07:57:52;24.20;98.70
5556;DHT22;2801;50.972;7.856;2022-07-30T08:00:19;24.10;98.70
5556;DHT22;2801;50.972;7.856;2022-07-30T08:02:47;23.90;97.80
5556;DHT22;2801;50.972;7.856;2022-07-30T08:05:15;23.70;98.10
5556;DHT22;2801;50.972;7.856;2022-07-30T08:07:43;23.60;98.00
5556;DHT22;2801;50.972;7.856;2022-07-30T08:10:11;23.40;97.80
5556;DHT22;2801;50.972;7.856;2022-07-30T08:12:40;23.30;98.50
5556;DHT22;2801;50.972;7.856;2022-07-30T08:15:08;23.30;98.40
5556;DHT22;2801;50.972;7.856;2022-07-30T08:17:43;23.20;98.60
5556;DHT22;2801;50.972;7.856;2022-07-30T08:20:13;23.20;99.10
5556;DHT22;2801;50.972;7.856;2022-07-30T08:22:42;23.20;99.00
5556;DHT22;2801;50.972;7.856;2022-07-30T08:25:09;23.20;99.00
5556;DHT22;2801;50.972;7.856;2022-07-30T08:27:36;23.20;99.10
5556;DHT22;2801;50.972;7.856;2022-07-30T08:30:07;23.20;98.70
5556;DHT22;2801;50.972;7.856;2022-07-30T08:32:35;23.20;98.90
5556;DHT22;2801;50.972;7.856;2022-07-30T08:35:03;23.20;98.90
5556;DHT22;2801;50.972;7.856;2022-07-30T08:37:32;23.20;98.60
5556;DHT22;2801;50.972;7.856;2022-07-30T08:39:59;23.30;98.70
5556;DHT22;2801;50.972;7.856;2022-07-30T08:42:26;23.30;98.70
5556;DHT22;2801;50.972;7.856;2022-07-30T08:44:55;23.20;98.30
5556;DHT22;2801;50.972;7.856;2022-07-30T08:47:27;23.00;98.60
5556;DHT22;2801;50.972;7.856;2022-07-30T08:49:58;23.00;98.60
5556;DHT22;2801;50.972;7.856;2022-07-30T08:52:35;23.00;98.60
5556;DHT22;2801;50.972;7.856;2022-07-30T08:55:06;23.00;98.80
5556;DHT22;2801;50.972;7.856;2022-07-30T08:57:34;23.20;99.00
5556;DHT22;2801;50.972;7.856;2022-07-30T09:00:03;23.20;98.80
5556;DHT22;2801;50.972;7.856;2022-07-30T09:02:32;23.40;98.40
5556;DHT22;2801;50.972;7.856;2022-07-30T09:04:59;23.40;97.90
5556;DHT22;2801;50.972;7.856;2022-07-30T09:07:25;23.30;97.70
5556;DHT22;2801;50.972;7.856;2022-07-30T09:09:52;23.40;98.30
5556;DHT22;2801;50.972;7.856;2022-07-30T09:12:39;23.50;98.20
5556;DHT22;2801;50.972;7.856;2022-07-30T09:15:13;23.60;98.40
5556;DHT22;2801;50.972;7.856;2022-07-30T09:17:57;23.70;98.70
5556;DHT22;2801;50.972;7.856;2022-07-30T09:20:37;23.80;98.40
5556;DHT22;2801;50.972;7.856;2022-07-30T09:23:05;23.70;98.20
5556;DHT22;2801;50.972;7.856;2022-07-30T09:25:43;23.70;98.10
5556;DHT22;2801;50.972;7.856;2022-07-30T09:28:13;23.60;97.70
5556;DHT22;2801;50.972;7.856;2022-07-30T09:30:49;23.40;97.60
5556;DHT22;2801;50.972;7.856;2022-07-30T09:33:36;23.40;97.90
5556;DHT22;2801;50.972;7.856;2022-07-30T09:36:11;23.40;97.90
5556;DHT22;2801;50.972;7.856;2022-07-30T09:41:33;23.70;96.80
5556;DHT22;2801;50.972;7.856;2022-07-30T09:44:06;23.70;96.10
5556;DHT22;2801;50.972;7.856;2022-07-30T09:46:46;23.90;95.90
5556;DHT22;2801;50.972;7.856;2022-07-30T09:49:19;24.20;95.20
5556;DHT22;2801;50.972;7.856;2022-07-30T09:51:48;24.30;95.70
5556;DHT22;2801;50.972;7.856;2022-07-30T09:54:23;24.50;95.70
5556;DHT22;2801;50.972;7.856;2022-07-30T09:57:05;24.80;95.00
5556;DHT22;2801;50.972;7.856;2022-07-30T09:59:52;24.90;95.00
5556;DHT22;2801;50.972;7.856;2022-07-30T10:02:25;25.00;94.10
5556;DHT22;2801;50.972;7.856;2022-07-30T10:05:11;25.00;93.80
5556;DHT22;2801;50.972;7.856;2022-07-30T10:07:59;24.80;93.30
5556;DHT22;2801;50.972;7.856;2022-07-30T10:10:35;24.40;93.40
5556;DHT22;2801;50.972;7.856;2022-07-30T10:13:13;24.10;94.50
5556;DHT22;2801;50.972;7.856;2022-07-30T10:15:48;24.00;94.60
5556;DHT22;2801;50.972;7.856;2022-07-30T10:18:16;24.20;94.80
5556;DHT22;2801;50.972;7.856;2022-07-30T10:20:43;24.40;94.50
5556;DHT22;2801;50.972;7.856;2022-07-30T10:23:11;24.60;94.20
5556;DHT22;2801;50.972;7.856;2022-07-30T10:25:42;24.70;93.50
5556;DHT22;2801;50.972;7.856;2022-07-30T10:28:20;24.60;92.70
5556;DHT22;2801;50.972;7.856;2022-07-30T10:30:51;24.50;93.00
5556;DHT22;2801;50.972;7.856;2022-07-30T10:33:22;24.40;93.10
5556;DHT22;2801;50.972;7.856;2022-07-30T10:36:02;24.10;93.20
5556;DHT22;2801;50.972;7.856;2022-07-30T10:38:33;24.10;93.50
5556;DHT22;2801;50.972;7.856;2022-07-30T10:41:52;24.10;93.30
5556;DHT22;2801;50.972;7.856;2022-07-30T10:47:15;23.90;92.60
5556;DHT22;2801;50.972;7.856;2022-07-30T10:50:04;23.90;92.10
5556;DHT22;2801;50.972;7.856;2022-07-30T10:52:52;24.10;92.00
5556;DHT22;2801;50.972;7.856;2022-07-30T10:58:10;24.70;91.90
5556;DHT22;2801;50.972;7.856;2022-07-30T11:03:21;25.10;90.60
5556;DHT22;2801;50.972;7.856;2022-07-30T11:08:50;25.00;90.50
5556;DHT22;2801;50.972;7.856;2022-07-30T11:14:09;25.80;88.50
5556;DHT22;2801;50.972;7.856;2022-07-30T11:19:12;25.90;88.70
5556;DHT22;2801;50.972;7.856;2022-07-30T11:22:26;25.80;87.30
5556;DHT22;2801;50.972;7.856;2022-07-30T11:24:58;25.50;88.50
5556;DHT22;2801;50.972;7.856;2022-07-30T11:32:48;25.40;88.40
5556;DHT22;2801;50.972;7.856;2022-07-30T11:35:29;25.40;88.90
5556;DHT22;2801;50.972;7.856;2022-07-30T11:41:07;25.50;89.80
5556;DHT22;2801;50.972;7.856;2022-07-30T11:43:32;25.80;89.70
5556;DHT22;2801;50.972;7.856;2022-07-30T11:46:06;26.00;88.90
5556;DHT22;2801;50.972;7.856;2022-07-30T11:48:53;26.30;88.50
5556;DHT22;2801;50.972;7.856;2022-07-30T11:51:22;26.50;88.20
5556;DHT22;2801;50.972;7.856;2022-07-30T11:54:07;26.60;88.00
5556;DHT22;2801;50.972;7.856;2022-07-30T11:56:36;26.70;85.70
5556;DHT22;2801;50.972;7.856;2022-07-30T11:59:07;26.80;85.10
5556;DHT22;2801;50.972;7.856;2022-07-30T12:01:34;26.70;83.00
5556;DHT22;2801;50.972;7.856;2022-07-30T12:04:05;26.60;82.40
5556;DHT22;2801;50.972;7.856;2022-07-30T12:06:43;26.40;83.40
5556;DHT22;2801;50.972;7.856;2022-07-30T12:09:11;26.40;83.40
5556;DHT22;2801;50.972;7.856;2022-07-30T12:11:40;26.40;83.20
5556;DHT22;2801;50.972;7.856;2022-07-30T12:14:07;26.40;83.10
5556;DHT22;2801;50.972;7.856;2022-07-30T12:16:34;26.50;82.10
5556;DHT22;2801;50.972;7.856;2022-07-30T12:19:05;26.50;81.70
5556;DHT22;2801;50.972;7.856;2022-07-30T12:21:35;26.30;82.30
5556;DHT22;2801;50.972;7.856;2022-07-30T12:24:05;26.00;81.80
5556;DHT22;2801;50.972;7.856;2022-07-30T12:26:33;25.70;82.20
5556;DHT22;2801;50.972;7.856;2022-07-30T12:29:06;25.50;83.60
5556;DHT22;2801;50.972;7.856;2022-07-30T12:31:39;25.40;84.70
5556;DHT22;2801;50.972;7.856;2022-07-30T12:34:24;25.50;85.00
5556;DHT22;2801;50.972;7.856;2022-07-30T12:36:52;25.80;83.00
5556;DHT22;2801;50.972;7.856;2022-07-30T12:39:24;25.90;83.60
5556;DHT22;2801;50.972;7.856;2022-07-30T12:41:53;26.10;82.30
5556;DHT22;2801;50.972;7.856;2022-07-30T12:44:40;26.20;82.70
5556;DHT22;2801;50.972;7.856;2022-07-30T12:47:21;26.30;80.60
5556;DHT22;2801;50.972;7.856;2022-07-30T12:49:52;26.10;79.50
5556;DHT22;2801;50.972;7.856;2022-07-30T12:52:27;26.00;81.20
5556;DHT22;2801;50.972;7.856;2022-07-30T12:55:08;26.00;80.70
5556;DHT22;2801;50.972;7.856;2022-07-30T13:03:27;26.30;80.20
5556;DHT22;2801;50.972;7.856;2022-07-30T13:05:55;26.00;79.40
5556;DHT22;2801;50.972;7.856;2022-07-30T13:08:45;26.00;80.10
5556;DHT22;2801;50.972;7.856;2022-07-30T13:11:18;25.90;79.70
5556;DHT22;2801;50.972;7.856;2022-07-30T13:13:48;26.00;81.30
5556;DHT22;2801;50.972;7.856;2022-07-30T13:16:16;26.20;81.70
5556;DHT22;2801;50.972;7.856;2022-07-30T13:18:45;26.40;80.60
5556;DHT22;2801;50.972;7.856;2022-07-30T13:21:12;26.40;80.60
5556;DHT22;2801;50.972;7.856;2022-07-30T13:23:40;26.30;80.30
5556;DHT22;2801;50.972;7.856;2022-07-30T13:26:08;26.30;79.70
5556;DHT22;2801;50.972;7.856;2022-07-30T13:28:36;26.30;79.60
5556;DHT22;2801;50.972;7.856;2022-07-30T13:31:03;26.40;80.30
5556;DHT22;2801;50.972;7.856;2022-07-30T13:33:31;26.50;80.10
5556;DHT22;2801;50.972;7.856;2022-07-30T13:35:58;26.50;79.10
5556;DHT22;2801;50.972;7.856;2022-07-30T13:38:25;26.50;79.00
5556;DHT22;2801;50.972;7.856;2022-07-30T13:40:52;26.50;78.40
5556;DHT22;2801;50.972;7.856;2022-07-30T13:43:25;26.50;78.60
5556;DHT22;2801;50.972;7.856;2022-07-30T13:45:53;26.50;77.80
5556;DHT22;2801;50.972;7.856;2022-07-30T13:48:25;26.40;76.60
5556;DHT22;2801;50.972;7.856;2022-07-30T13:50:52;26.30;76.40
5556;DHT22;2801;50.972;7.856;2022-07-30T13:53:18;26.30;76.60
5556;DHT22;2801;50.972;7.856;2022-07-30T13:55:46;26.30;77.30
5556;DHT22;2801;50.972;7.856;2022-07-30T13:58:13;26.40;76.10
5556;DHT22;2801;50.972;7.856;2022-07-30T14:00:40;26.50;77.30
5556;DHT22;2801;50.972;7.856;2022-07-30T14:03:09;26.60;76.50
5556;DHT22;2801;50.972;7.856;2022-07-30T14:05:37;26.70;74.60
5556;DHT22;2801;50.972;7.856;2022-07-30T14:08:09;26.70;76.80
5556;DHT22;2801;50.972;7.856;2022-07-30T14:10:38;27.00;76.10
5556;DHT22;2801;50.972;7.856;2022-07-30T14:13:07;27.00;73.10
5556;DHT22;2801;50.972;7.856;2022-07-30T14:15:46;26.90;73.10
5556;DHT22;2801;50.972;7.856;2022-07-30T14:18:13;27.00;73.40
5556;DHT22;2801;50.972;7.856;2022-07-30T14:20:40;27.10;73.90
5556;DHT22;2801;50.972;7.856;2022-07-30T14:23:14;27.20;73.40
5556;DHT22;2801;50.972;7.856;2022-07-30T14:25:41;27.10;74.00
5556;DHT22;2801;50.972;7.856;2022-07-30T14:28:09;27.10;75.20
5556;DHT22;2801;50.972;7.856;2022-07-30T14:30:36;27.00;72.10
5556;DHT22;2801;50.972;7.856;2022-07-30T14:33:03;26.90;72.00
5556;DHT22;2801;50.972;7.856;2022-07-30T14:35:30;26.90;71.60
5556;DHT22;2801;50.972;7.856;2022-07-30T14:37:57;27.10;73.20
5556;DHT22;2801;50.972;7.856;2022-07-30T14:40:24;27.30;73.40
5556;DHT22;2801;50.972;7.856;2022-07-30T14:42:51;27.50;73.20
5556;DHT22;2801;50.972;7.856;2022-07-30T14:45:21;27.70;71.60
5556;DHT22;2801;50.972;7.856;2022-07-30T14:47:48;27.70;69.80
5556;DHT22;2801;50.972;7.856;2022-07-30T14:50:15;27.60;68.50
5556;DHT22;2801;50.972;7.856;2022-07-30T14:52:42;27.60;67.80
5556;DHT22;2801;50.972;7.856;2022-07-30T14:55:10;27.50;68.00
5556;DHT22;2801;50.972;7.856;2022-07-30T14:57:37;27.50;68.90
5556;DHT22;2801;50.972;7.856;2022-07-30T15:00:05;27.60;68.70
5556;DHT22;2801;50.972;7.856;2022-07-30T15:02:36;27.80;66.80
5556;DHT22;2801;50.972;7.856;2022-07-30T15:05:03;27.80;66.40
5556;DHT22;2801;50.972;7.856;2022-07-30T15:07:31;27.80;64.80
5556;DHT22;2801;50.972;7.856;2022-07-30T15:10:01;27.70;65.30
5556;DHT22;2801;50.972;7.856;2022-07-30T15:12:28;27.50;64.30
5556;DHT22;2801;50.972;7.856;2022-07-30T15:14:55;27.40;64.50
5556;DHT22;2801;50.972;7.856;2022-07-30T15:17:23;27.30;64.00
5556;DHT22;2801;50.972;7.856;2022-07-30T15:19:49;27.20;64.70
5556;DHT22;2801;50.972;7.856;2022-07-30T15:22:20;27.00;64.20
5556;DHT22;2801;50.972;7.856;2022-07-30T15:24:47;27.00;64.90
5556;DHT22;2801;50.972;7.856;2022-07-30T15:27:14;27.10;65.00
5556;DHT22;2801;50.972;7.856;2022-07-30T15:29:42;27.40;65.20
5556;DHT22;2801;50.972;7.856;2022-07-30T15:32:09;27.50;65.40
5556;DHT22;2801;50.972;7.856;2022-07-30T15:34:36;27.60;64.20
5556;DHT22;2801;50.972;7.856;2022-07-30T15:37:04;27.50;63.50
5556;DHT22;2801;50.972;7.856;2022-07-30T15:39:32;27.40;64.30
5556;DHT22;2801;50.972;7.856;2022-07-30T15:42:01;27.50;64.60
5556;DHT22;2801;50.972;7.856;2022-07-30T15:44:29;27.50;64.30
5556;DHT22;2801;50.972;7.856;2022-07-30T15:46:57;27.50;65.10
5556;DHT22;2801;50.972;7.856;2022-07-30T15:49:25;27.70;65.50
5556;DHT22;2801;50.972;7.856;2022-07-30T15:51:53;27.80;65.40
5556;DHT22;2801;50.972;7.856;2022-07-30T15:54:22;27.80;64.20
5556;DHT22;2801;50.972;7.856;2022-07-30T15:56:50;27.90;64.10
5556;DHT22;2801;50.972;7.856;2022-07-30T15:59:20;27.90;64.00
5556;DHT22;2801;50.972;7.856;2022-07-30T16:01:47;27.90;63.50
5556;DHT22;2801;50.972;7.856;2022-07-30T16:04:14;27.70;62.30
5556;DHT22;2801;50.972;7.856;2022-07-30T16:06:48;27.50;62.30
5556;DHT22;2801;50.972;7.856;2022-07-30T16:09:15;27.40;62.90
5556;DHT22;2801;50.972;7.856;2022-07-30T16:11:42;27.30;61.50
5556;DHT22;2801;50.972;7.856;2022-07-30T16:14:09;27.10;61.50
5556;DHT22;2801;50.972;7.856;2022-07-30T16:16:36;26.90;60.70
5556;DHT22;2801;50.972;7.856;2022-07-30T16:19:03;26.60;61.10
5556;DHT22;2801;50.972;7.856;2022-07-30T16:21:30;26.50;61.50
5556;DHT22;2801;50.972;7.856;2022-07-30T16:23:57;26.50;62.00
5556;DHT22;2801;50.972;7.856;2022-07-30T16:26:24;26.50;62.20
5556;DHT22;2801;50.972;7.856;2022-07-30T16:28:51;26.40;62.00
5556;DHT22;2801;50.972;7.856;2022-07-30T16:31:18;26.40;62.30
5556;DHT22;2801;50.972;7.856;2022-07-30T16:33:45;26.10;61.80
5556;DHT22;2801;50.972;7.856;2022-07-30T16:36:12;25.80;62.30
5556;DHT22;2801;50.972;7.856;2022-07-30T16:38:39;25.70;63.20
5556;DHT22;2801;50.972;7.856;2022-07-30T16:41:08;25.60;64.00
5556;DHT22;2801;50.972;7.856;2022-07-30T16:43:39;25.60;63.90
5556;DHT22;2801;50.972;7.856;2022-07-30T16:46:06;25.50;64.40
5556;DHT22;2801;50.972;7.856;2022-07-30T16:48:33;25.50;65.40
5556;DHT22;2801;50.972;7.856;2022-07-30T16:51:00;25.50;65.90
5556;DHT22;2801;50.972;7.856;2022-07-30T16:53:27;25.50;66.70
5556;DHT22;2801;50.972;7.856;2022-07-30T16:55:54;25.50;67.10
5556;DHT22;2801;50.972;7.856;2022-07-30T16:58:22;25.50;67.40